sensor_id;sensor_type;location;lat;lon;timestamp;P1;durP1;ratioP1;P2;durP2;ratioP2
18210;SDS011;9231;48.852;9.882;2022-08-01T00:01:14;570.87;;;518.73;;
18210;SDS011;9231;48.852;9.882;2022-08-01T00:03:41;729.97;;;672.10;;
18210;SDS011;9231;48.852;9.882;2022-08-01T00:06:07;621.67;;;567.93;;
18210;SDS011;9231;48.852;9.882;2022-08-01T00:08:35;575.43;;;523.20;;
18210;SDS011;9231;48.852;9.882;2022-08-01T00:11:01;675.53;;;619.83;;
18210;SDS011;9231;48.852;9.882;2022-08-01T00:13:28;427.63;;;358.97;;
18210;SDS011;9231;48.852;9.882;2022-08-01T00:15:54;432.73;;;365.00;;
18210;SDS011;9231;48.852;9.882;2022-08-01T00:18:21;426.87;;;344.60;;
18210;SDS011;9231;48.852;9.882;2022-08-01T00:20:47;428.77;;;345.60;;
18210;SDS011;9231;48.852;9.882;2022-08-01T00:23:14;423.90;;;336.83;;
18210;SDS011;9231;48.852;9.882;2022-08-01T00:25:42;422.33;;;332.27;;
18210;SDS011;9231;48.852;9.882;2022-08-01T00:28:11;421.53;;;333.57;;
18210;SDS011;9231;48.852;9.882;2022-08-01T00:30:38;427.07;;;334.20;;
18210;SDS011;9231;48.852;9.882;2022-08-01T00:33:05;415.73;;;304.60;;
18210;SDS011;9231;48.852;9.882;2022-08-01T00:35:31;419.47;;;318.37;;
18210;SDS011;9231;48.852;9.882;2022-08-01T00:37:58;422.57;;;328.73;;
18210;SDS011;9231;48.852;9.882;2022-08-01T00:40:24;419.03;;;314.03;;
18210;SDS011;9231;48.852;9.882;2022-08-01T00:42:52;409.00;;;314.03;;
18210;SDS011;9231;48.852;9.882;2022-08-01T00:45:18;413.43;;;304.30;;
18210;SDS011;9231;48.852;9.882;2022-08-01T00:47:45;420.00;;;324.20;;
18210;SDS011;9231;48.852;9.882;2022-08-01T00:50:12;411.83;;;299.67;;
18210;SDS011;9231;48.852;9.882;2022-08-01T00:52:39;411.83;;;289.23;;
18210;SDS011;9231;48.852;9.882;2022-08-01T00:55:05;415.17;;;304.43;;
18210;SDS011;9231;48.852;9.882;2022-08-01T00:57:32;418.53;;;307.70;;
18210;SDS011;9231;48.852;9.882;2022-08-01T01:00:00;415.90;;;302.53;;
18210;SDS011;9231;48.852;9.882;2022-08-01T01:02:26;417.70;;;307.27;;
18210;SDS011;9231;48.852;9.882;2022-08-01T01:04:53;413.93;;;304.83;;
18210;SDS011;9231;48.852;9.882;2022-08-01T01:07:21;416.93;;;307.00;;
18210;SDS011;9231;48.852;9.882;2022-08-01T01:09:50;415.43;;;301.73;;
18210;SDS011;9231;48.852;9.882;2022-08-01T01:12:19;413.20;;;295.67;;
18210;SDS011;9231;48.852;9.882;2022-08-01T01:14:51;412.83;;;293.80;;
18210;SDS011;9231;48.852;9.882;2022-08-01T01:17:21;410.90;;;283.83;;
18210;SDS011;9231;48.852;9.882;2022-08-01T01:19:51;412.87;;;289.90;;
18210;SDS011;9231;48.852;9.882;2022-08-01T01:22:24;414.07;;;290.10;;
18210;SDS011;9231;48.852;9.882;2022-08-01T01:27:36;671.07;;;612.23;;
18210;SDS011;9231;48.852;9.882;2022-08-01T01:30:07;497.15;;;445.05;;
18210;SDS011;9231;48.852;9.882;2022-08-01T01:32:35;771.93;;;705.27;;
18210;SDS011;9231;48.852;9.882;2022-08-01T01:35:03;623.53;;;567.23;;
18210;SDS011;9231;48.852;9.882;2022-08-01T01:37:31;420.93;;;309.60;;
18210;SDS011;9231;48.852;9.882;2022-08-01T01:39:59;424.20;;;318.20;;
18210;SDS011;9231;48.852;9.882;2022-08-01T01:42:27;423.73;;;308.97;;
18210;SDS011;9231;48.852;9.882;2022-08-01T01:44:54;419.80;;;304.30;;
18210;SDS011;9231;48.852;9.882;2022-08-01T01:47:23;417.80;;;296.23;;
18210;SDS011;9231;48.852;9.882;2022-08-01T01:49:50;425.33;;;330.23;;
18210;SDS011;9231;48.852;9.882;2022-08-01T01:52:18;417.37;;;297.67;;
18210;SDS011;9231;48.852;9.882;2022-08-01T01:54:47;418.13;;;307.60;;
18210;SDS011;9231;48.852;9.882;2022-08-01T01:57:13;418.97;;;305.87;;
18210;SDS011;9231;48.852;9.882;2022-08-01T01:59:41;417.13;;;296.53;;
18210;SDS011;9231;48.852;9.882;2022-08-01T02:02:08;417.73;;;300.77;;
18210;SDS011;9231;48.852;9.882;2022-08-01T02:04:38;417.17;;;300.90;;
18210;SDS011;9231;48.852;9.882;2022-08-01T02:07:06;413.27;;;280.17;;
18210;SDS011;9231;48.852;9.882;2022-08-01T02:09:34;410.37;;;280.70;;
18210;SDS011;9231;48.852;9.882;2022-08-01T02:12:01;415.47;;;283.77;;
18210;SDS011;9231;48.852;9.882;2022-08-01T02:14:28;408.93;;;275.97;;
18210;SDS011;9231;48.852;9.882;2022-08-01T02:16:55;416.00;;;294.63;;
18210;SDS011;9231;48.852;9.882;2022-08-01T02:19:24;403.33;;;271.97;;
18210;SDS011;9231;48.852;9.882;2022-08-01T02:21:52;408.90;;;275.73;;
18210;SDS011;9231;48.852;9.882;2022-08-01T02:24:24;412.10;;;277.10;;
18210;SDS011;9231;48.852;9.882;2022-08-01T02:26:52;406.80;;;267.07;;
18210;SDS011;9231;48.852;9.882;2022-08-01T02:29:19;410.17;;;277.67;;
18210;SDS011;9231;48.852;9.882;2022-08-01T02:31:47;410.63;;;272.13;;
18210;SDS011;9231;48.852;9.882;2022-08-01T02:34:15;411.00;;;278.30;;
18210;SDS011;9231;48.852;9.882;2022-08-01T02:36:43;409.30;;;268.03;;
18210;SDS011;9231;48.852;9.882;2022-08-01T02:39:13;410.20;;;269.13;;
18210;SDS011;9231;48.852;9.882;2022-08-01T02:41:41;414.37;;;279.67;;
18210;SDS011;9231;48.852;9.882;2022-08-01T02:44:09;404.57;;;266.70;;
18210;SDS011;9231;48.852;9.882;2022-08-01T02:46:37;411.93;;;278.50;;
18210;SDS011;9231;48.852;9.882;2022-08-01T02:49:05;409.00;;;281.63;;
18210;SDS011;9231;48.852;9.882;2022-08-01T02:51:32;411.27;;;277.00;;
18210;SDS011;9231;48.852;9.882;2022-08-01T02:54:00;406.40;;;266.30;;
18210;SDS011;9231;48.852;9.882;2022-08-01T02:56:29;399.13;;;252.93;;
18210;SDS011;9231;48.852;9.882;2022-08-01T02:59:01;406.63;;;267.30;;
18210;SDS011;9231;48.852;9.882;2022-08-01T03:01:28;408.90;;;268.07;;
18210;SDS011;9231;48.852;9.882;2022-08-01T03:03:55;407.70;;;264.00;;
18210;SDS011;9231;48.852;9.882;2022-08-01T03:06:21;405.23;;;262.17;;
18210;SDS011;9231;48.852;9.882;2022-08-01T03:08:49;406.13;;;255.23;;
18210;SDS011;9231;48.852;9.882;2022-08-01T03:11:16;406.67;;;259.17;;
18210;SDS011;9231;48.852;9.882;2022-08-01T03:13:45;409.00;;;258.70;;
18210;SDS011;9231;48.852;9.882;2022-08-01T03:16:13;405.17;;;252.40;;
18210;SDS011;9231;48.852;9.882;2022-08-01T03:18:41;399.47;;;249.13;;
18210;SDS011;9231;48.852;9.882;2022-08-01T03:21:09;405.47;;;253.70;;
18210;SDS011;9231;48.852;9.882;2022-08-01T03:23:37;408.83;;;265.37;;
18210;SDS011;9231;48.852;9.882;2022-08-01T03:26:04;400.83;;;251.63;;
18210;SDS011;9231;48.852;9.882;2022-08-01T03:28:31;405.77;;;254.90;;
18210;SDS011;9231;48.852;9.882;2022-08-01T03:30:59;414.33;;;272.23;;
18210;SDS011;9231;48.852;9.882;2022-08-01T03:33:26;398.23;;;237.33;;
18210;SDS011;9231;48.852;9.882;2022-08-01T03:35:53;399.57;;;236.40;;
18210;SDS011;9231;48.852;9.882;2022-08-01T03:38:21;398.70;;;240.43;;
18210;SDS011;9231;48.852;9.882;2022-08-01T03:40:49;398.30;;;243.93;;
18210;SDS011;9231;48.852;9.882;2022-08-01T03:43:18;401.60;;;239.57;;
18210;SDS011;9231;48.852;9.882;2022-08-01T03:45:45;399.77;;;238.83;;
18210;SDS011;9231;48.852;9.882;2022-08-01T03:48:14;397.43;;;231.83;;
18210;SDS011;9231;48.852;9.882;2022-08-01T03:50:42;402.43;;;240.00;;
18210;SDS011;9231;48.852;9.882;2022-08-01T03:53:09;398.43;;;232.50;;
18210;SDS011;9231;48.852;9.882;2022-08-01T03:55:37;395.60;;;229.13;;
18210;SDS011;9231;48.852;9.882;2022-08-01T03:58:05;402.87;;;240.23;;
18210;SDS011;9231;48.852;9.882;2022-08-01T04:00:32;399.53;;;239.27;;
18210;SDS011;9231;48.852;9.882;2022-08-01T04:02:59;397.67;;;237.27;;
18210;SDS011;9231;48.852;9.882;2022-08-01T04:05:27;398.70;;;235.93;;
18210;SDS011;9231;48.852;9.882;2022-08-01T04:07:53;397.17;;;231.77;;
18210;SDS011;9231;48.852;9.882;2022-08-01T04:10:21;395.47;;;228.00;;
18210;SDS011;9231;48.852;9.882;2022-08-01T04:12:48;395.77;;;231.70;;
18210;SDS011;9231;48.852;9.882;2022-08-01T04:15:14;396.47;;;231.07;;
18210;SDS011;9231;48.852;9.882;2022-08-01T04:17:41;395.10;;;232.57;;
18210;SDS011;9231;48.852;9.882;2022-08-01T04:20:08;394.67;;;230.63;;
18210;SDS011;9231;48.852;9.882;2022-08-01T04:22:37;398.90;;;230.77;;
18210;SDS011;9231;48.852;9.882;2022-08-01T04:25:06;395.10;;;232.30;;
18210;SDS011;9231;48.852;9.882;2022-08-01T04:27:35;397.87;;;236.33;;
18210;SDS011;9231;48.852;9.882;2022-08-01T04:30:02;390.60;;;219.73;;
18210;SDS011;9231;48.852;9.882;2022-08-01T04:32:32;394.13;;;233.70;;
18210;SDS011;9231;48.852;9.882;2022-08-01T04:35:00;392.97;;;229.03;;
18210;SDS011;9231;48.852;9.882;2022-08-01T04:37:28;394.70;;;230.57;;
18210;SDS011;9231;48.852;9.882;2022-08-01T04:39:57;396.07;;;236.60;;
18210;SDS011;9231;48.852;9.882;2022-08-01T04:42:24;393.50;;;229.93;;
18210;SDS011;9231;48.852;9.882;2022-08-01T04:44:51;389.77;;;229.63;;
18210;SDS011;9231;48.852;9.882;2022-08-01T04:47:17;398.47;;;236.27;;
18210;SDS011;9231;48.852;9.882;2022-08-01T04:49:44;393.77;;;225.93;;
18210;SDS011;9231;48.852;9.882;2022-08-01T04:52:12;393.37;;;227.33;;
18210;SDS011;9231;48.852;9.882;2022-08-01T04:54:38;396.13;;;231.20;;
18210;SDS011;9231;48.852;9.882;2022-08-01T04:57:06;398.33;;;236.77;;
18210;SDS011;9231;48.852;9.882;2022-08-01T04:59:33;395.13;;;231.57;;
18210;SDS011;9231;48.852;9.882;2022-08-01T05:02:07;397.23;;;237.53;;
18210;SDS011;9231;48.852;9.882;2022-08-01T05:04:33;390.70;;;233.47;;
18210;SDS011;9231;48.852;9.882;2022-08-01T05:07:00;393.83;;;229.17;;
18210;SDS011;9231;48.852;9.882;2022-08-01T05:09:26;393.27;;;235.90;;
18210;SDS011;9231;48.852;9.882;2022-08-01T05:11:53;394.80;;;232.57;;
18210;SDS011;9231;48.852;9.882;2022-08-01T05:14:21;394.33;;;235.37;;
18210;SDS011;9231;48.852;9.882;2022-08-01T05:16:47;392.20;;;236.27;;
18210;SDS011;9231;48.852;9.882;2022-08-01T05:19:14;391.17;;;225.53;;
18210;SDS011;9231;48.852;9.882;2022-08-01T05:21:40;398.63;;;230.43;;
18210;SDS011;9231;48.852;9.882;2022-08-01T05:24:07;393.57;;;245.73;;
18210;SDS011;9231;48.852;9.882;2022-08-01T05:26:33;401.43;;;248.73;;
18210;SDS011;9231;48.852;9.882;2022-08-01T05:29:00;398.83;;;245.60;;
18210;SDS011;9231;48.852;9.882;2022-08-01T05:31:28;399.87;;;250.17;;
18210;SDS011;9231;48.852;9.882;2022-08-01T05:33:54;405.73;;;262.53;;
18210;SDS011;9231;48.852;9.882;2022-08-01T05:36:21;395.73;;;238.30;;
18210;SDS011;9231;48.852;9.882;2022-08-01T05:38:47;398.43;;;244.93;;
18210;SDS011;9231;48.852;9.882;2022-08-01T05:41:13;398.93;;;249.87;;
18210;SDS011;9231;48.852;9.882;2022-08-01T05:43:40;402.87;;;254.17;;
18210;SDS011;9231;48.852;9.882;2022-08-01T05:46:06;400.67;;;243.20;;
18210;SDS011;9231;48.852;9.882;2022-08-01T05:48:34;395.97;;;244.83;;
18210;SDS011;9231;48.852;9.882;2022-08-01T05:51:01;403.57;;;255.60;;
18210;SDS011;9231;48.852;9.882;2022-08-01T05:53:27;396.37;;;259.20;;
18210;SDS011;9231;48.852;9.882;2022-08-01T05:55:54;402.63;;;263.50;;
18210;SDS011;9231;48.852;9.882;2022-08-01T05:58:21;401.13;;;262.50;;
18210;SDS011;9231;48.852;9.882;2022-08-01T06:00:47;399.93;;;255.40;;
18210;SDS011;9231;48.852;9.882;2022-08-01T06:03:14;408.57;;;283.63;;
18210;SDS011;9231;48.852;9.882;2022-08-01T06:05:42;402.90;;;266.50;;
18210;SDS011;9231;48.852;9.882;2022-08-01T06:08:08;404.80;;;266.53;;
18210;SDS011;9231;48.852;9.882;2022-08-01T06:10:34;399.67;;;271.17;;
18210;SDS011;9231;48.852;9.882;2022-08-01T06:13:01;406.10;;;273.93;;
18210;SDS011;9231;48.852;9.882;2022-08-01T06:15:28;405.27;;;281.37;;
18210;SDS011;9231;48.852;9.882;2022-08-01T06:17:54;405.40;;;275.20;;
18210;SDS011;9231;48.852;9.882;2022-08-01T06:20:21;409.17;;;283.63;;
18210;SDS011;9231;48.852;9.882;2022-08-01T06:22:48;404.33;;;268.77;;
18210;SDS011;9231;48.852;9.882;2022-08-01T06:25:16;405.90;;;274.73;;
18210;SDS011;9231;48.852;9.882;2022-08-01T06:27:43;404.03;;;280.13;;
18210;SDS011;9231;48.852;9.882;2022-08-01T06:30:10;407.30;;;275.10;;
18210;SDS011;9231;48.852;9.882;2022-08-01T06:32:36;406.60;;;283.57;;
18210;SDS011;9231;48.852;9.882;2022-08-01T06:35:03;404.30;;;275.50;;
18210;SDS011;9231;48.852;9.882;2022-08-01T06:37:30;405.87;;;273.80;;
18210;SDS011;9231;48.852;9.882;2022-08-01T06:39:58;404.60;;;281.23;;
18210;SDS011;9231;48.852;9.882;2022-08-01T06:42:26;412.30;;;287.30;;
18210;SDS011;9231;48.852;9.882;2022-08-01T06:44:52;412.63;;;295.97;;
18210;SDS011;9231;48.852;9.882;2022-08-01T06:47:18;407.83;;;278.13;;
18210;SDS011;9231;48.852;9.882;2022-08-01T06:49:45;411.83;;;298.33;;
18210;SDS011;9231;48.852;9.882;2022-08-01T06:52:11;408.80;;;298.10;;
18210;SDS011;9231;48.852;9.882;2022-08-01T06:54:38;411.13;;;291.60;;
18210;SDS011;9231;48.852;9.882;2022-08-01T06:57:06;409.77;;;290.57;;
18210;SDS011;9231;48.852;9.882;2022-08-01T06:59:32;410.50;;;298.17;;
18210;SDS011;9231;48.852;9.882;2022-08-01T07:01:59;411.43;;;304.90;;
18210;SDS011;9231;48.852;9.882;2022-08-01T07:04:26;410.57;;;309.87;;
18210;SDS011;9231;48.852;9.882;2022-08-01T07:06:53;416.93;;;315.03;;
18210;SDS011;9231;48.852;9.882;2022-08-01T07:09:19;414.33;;;313.00;;
18210;SDS011;9231;48.852;9.882;2022-08-01T07:11:46;435.80;;;329.63;;
18210;SDS011;9231;48.852;9.882;2022-08-01T07:14:13;415.43;;;319.73;;
18210;SDS011;9231;48.852;9.882;2022-08-01T07:16:40;416.00;;;313.97;;
18210;SDS011;9231;48.852;9.882;2022-08-01T07:19:06;419.20;;;330.17;;
18210;SDS011;9231;48.852;9.882;2022-08-01T07:21:33;423.43;;;343.20;;
18210;SDS011;9231;48.852;9.882;2022-08-01T07:23:59;417.30;;;327.87;;
18210;SDS011;9231;48.852;9.882;2022-08-01T07:26:26;416.27;;;322.33;;
18210;SDS011;9231;48.852;9.882;2022-08-01T07:28:52;424.00;;;346.83;;
18210;SDS011;9231;48.852;9.882;2022-08-01T07:31:20;417.67;;;331.37;;
18210;SDS011;9231;48.852;9.882;2022-08-01T07:33:48;412.60;;;338.93;;
18210;SDS011;9231;48.852;9.882;2022-08-01T07:36:14;422.77;;;351.20;;
18210;SDS011;9231;48.852;9.882;2022-08-01T07:38:40;424.37;;;353.13;;
18210;SDS011;9231;48.852;9.882;2022-08-01T07:41:07;423.73;;;352.70;;
18210;SDS011;9231;48.852;9.882;2022-08-01T07:43:33;427.77;;;369.47;;
18210;SDS011;9231;48.852;9.882;2022-08-01T07:46:01;424.27;;;363.33;;
18210;SDS011;9231;48.852;9.882;2022-08-01T07:48:28;422.07;;;361.47;;
18210;SDS011;9231;48.852;9.882;2022-08-01T07:50:55;433.83;;;378.97;;
18210;SDS011;9231;48.852;9.882;2022-08-01T07:53:22;423.80;;;364.07;;
18210;SDS011;9231;48.852;9.882;2022-08-01T07:55:48;444.33;;;395.70;;
18210;SDS011;9231;48.852;9.882;2022-08-01T07:58:15;427.10;;;374.23;;
18210;SDS011;9231;48.852;9.882;2022-08-01T08:00:42;448.03;;;399.93;;
18210;SDS011;9231;48.852;9.882;2022-08-01T08:03:08;447.20;;;398.40;;
18210;SDS011;9231;48.852;9.882;2022-08-01T08:05:36;450.73;;;402.33;;
18210;SDS011;9231;48.852;9.882;2022-08-01T08:08:04;446.50;;;398.67;;
18210;SDS011;9231;48.852;9.882;2022-08-01T08:10:30;454.30;;;406.13;;
18210;SDS011;9231;48.852;9.882;2022-08-01T08:12:57;444.77;;;396.63;;
18210;SDS011;9231;48.852;9.882;2022-08-01T08:15:23;462.03;;;413.53;;
18210;SDS011;9231;48.852;9.882;2022-08-01T08:17:50;461.67;;;413.33;;
18210;SDS011;9231;48.852;9.882;2022-08-01T08:20:16;448.90;;;400.50;;
18210;SDS011;9231;48.852;9.882;2022-08-01T08:22:44;475.47;;;427.43;;
18210;SDS011;9231;48.852;9.882;2022-08-01T08:25:11;489.53;;;440.77;;
18210;SDS011;9231;48.852;9.882;2022-08-01T08:27:37;466.50;;;418.37;;
18210;SDS011;9231;48.852;9.882;2022-08-01T08:30:04;470.93;;;422.70;;
18210;SDS011;9231;48.852;9.882;2022-08-01T08:32:32;473.37;;;424.93;;
18210;SDS011;9231;48.852;9.882;2022-08-01T08:34:59;476.13;;;428.17;;
18210;SDS011;9231;48.852;9.882;2022-08-01T08:37:26;471.70;;;424.03;;
18210;SDS011;9231;48.852;9.882;2022-08-01T08:39:54;462.60;;;414.70;;
18210;SDS011;9231;48.852;9.882;2022-08-01T08:42:20;453.87;;;406.03;;
18210;SDS011;9231;48.852;9.882;2022-08-01T08:44:47;613.45;;;557.90;;
18210;SDS011;9231;48.852;9.882;2022-08-01T09:03:24;914.92;;;852.30;;
18210;SDS011;9231;48.852;9.882;2022-08-01T09:05:50;1009.93;;;940.10;;
18210;SDS011;9231;48.852;9.882;2022-08-01T09:08:17;736.40;;;675.00;;
18210;SDS011;9231;48.852;9.882;2022-08-01T09:10:43;750.35;;;695.47;;
18210;SDS011;9231;48.852;9.882;2022-08-01T09:13:10;388.13;;;347.07;;
18210;SDS011;9231;48.852;9.882;2022-08-01T09:15:38;401.47;;;359.70;;
18210;SDS011;9231;48.852;9.882;2022-08-01T09:18:05;348.03;;;286.17;;
18210;SDS011;9231;48.852;9.882;2022-08-01T09:20:33;358.23;;;279.03;;
18210;SDS011;9231;48.852;9.882;2022-08-01T09:23:01;362.07;;;294.43;;
18210;SDS011;9231;48.852;9.882;2022-08-01T09:25:28;361.37;;;287.43;;
18210;SDS011;9231;48.852;9.882;2022-08-01T09:28:02;359.73;;;269.80;;
18210;SDS011;9231;48.852;9.882;2022-08-01T09:30:28;376.17;;;309.77;;
18210;SDS011;9231;48.852;9.882;2022-08-01T09:33:02;357.60;;;262.97;;
18210;SDS011;9231;48.852;9.882;2022-08-01T09:35:30;371.53;;;295.10;;
18210;SDS011;9231;48.852;9.882;2022-08-01T09:38:16;377.77;;;311.27;;
18210;SDS011;9231;48.852;9.882;2022-08-01T09:40:44;379.90;;;310.47;;
18210;SDS011;9231;48.852;9.882;2022-08-01T09:43:10;384.10;;;333.27;;
18210;SDS011;9231;48.852;9.882;2022-08-01T09:45:37;387.03;;;332.83;;
18210;SDS011;9231;48.852;9.882;2022-08-01T09:48:05;391.73;;;343.77;;
18210;SDS011;9231;48.852;9.882;2022-08-01T09:50:38;388.90;;;335.37;;
18210;SDS011;9231;48.852;9.882;2022-08-01T09:53:04;386.03;;;328.20;;
18210;SDS011;9231;48.852;9.882;2022-08-01T09:55:32;382.50;;;325.97;;
18210;SDS011;9231;48.852;9.882;2022-08-01T09:57:59;379.00;;;332.53;;
18210;SDS011;9231;48.852;9.882;2022-08-01T10:00:26;388.50;;;332.67;;
18210;SDS011;9231;48.852;9.882;2022-08-01T10:02:52;379.67;;;328.83;;
18210;SDS011;9231;48.852;9.882;2022-08-01T10:05:29;383.73;;;330.67;;
18210;SDS011;9231;48.852;9.882;2022-08-01T10:07:56;380.63;;;321.00;;
18210;SDS011;9231;48.852;9.882;2022-08-01T10:10:23;722.53;;;669.88;;
18210;SDS011;9231;48.852;9.882;2022-08-01T10:12:51;413.27;;;370.13;;
18210;SDS011;9231;48.852;9.882;2022-08-01T10:15:18;382.20;;;326.60;;
18210;SDS011;9231;48.852;9.882;2022-08-01T10:17:46;380.63;;;319.77;;
18210;SDS011;9231;48.852;9.882;2022-08-01T10:20:13;382.00;;;311.53;;
18210;SDS011;9231;48.852;9.882;2022-08-01T10:22:39;373.43;;;303.23;;
18210;SDS011;9231;48.852;9.882;2022-08-01T10:25:06;377.97;;;300.73;;
18210;SDS011;9231;48.852;9.882;2022-08-01T10:27:33;378.10;;;306.50;;
18210;SDS011;9231;48.852;9.882;2022-08-01T10:30:04;379.93;;;301.53;;
18210;SDS011;9231;48.852;9.882;2022-08-01T10:32:33;378.87;;;298.83;;
18210;SDS011;9231;48.852;9.882;2022-08-01T10:35:01;387.10;;;330.93;;
18210;SDS011;9231;48.852;9.882;2022-08-01T10:37:28;388.73;;;341.33;;
18210;SDS011;9231;48.852;9.882;2022-08-01T10:39:55;388.00;;;338.73;;
18210;SDS011;9231;48.852;9.882;2022-08-01T10:42:21;392.60;;;343.20;;
18210;SDS011;9231;48.852;9.882;2022-08-01T10:44:48;397.80;;;354.43;;
18210;SDS011;9231;48.852;9.882;2022-08-01T10:47:32;383.50;;;325.40;;
18210;SDS011;9231;48.852;9.882;2022-08-01T11:10:03;613.70;;;564.57;;
18210;SDS011;9231;48.852;9.882;2022-08-01T11:12:37;621.53;;;571.60;;
18210;SDS011;9231;48.852;9.882;2022-08-01T11:15:16;600.17;;;551.20;;
18210;SDS011;9231;48.852;9.882;2022-08-01T11:17:49;552.93;;;505.20;;
18210;SDS011;9231;48.852;9.882;2022-08-01T11:20:16;550.53;;;502.77;;
18210;SDS011;9231;48.852;9.882;2022-08-01T11:28:27;563.00;;;515.07;;
18210;SDS011;9231;48.852;9.882;2022-08-01T11:33:48;534.57;;;487.13;;
18210;SDS011;9231;48.852;9.882;2022-08-01T11:36:18;540.97;;;493.53;;
18210;SDS011;9231;48.852;9.882;2022-08-01T11:38:46;520.47;;;473.73;;
18210;SDS011;9231;48.852;9.882;2022-08-01T11:41:14;543.17;;;495.17;;
18210;SDS011;9231;48.852;9.882;2022-08-01T11:43:54;541.10;;;493.87;;
18210;SDS011;9231;48.852;9.882;2022-08-01T11:51:47;562.37;;;514.50;;
18210;SDS011;9231;48.852;9.882;2022-08-01T11:54:14;581.50;;;533.30;;
18210;SDS011;9231;48.852;9.882;2022-08-01T11:56:42;576.43;;;528.23;;
18210;SDS011;9231;48.852;9.882;2022-08-01T11:59:09;585.73;;;537.27;;
18210;SDS011;9231;48.852;9.882;2022-08-01T12:01:36;609.40;;;560.20;;
18210;SDS011;9231;48.852;9.882;2022-08-01T12:04:02;607.90;;;558.73;;
18210;SDS011;9231;48.852;9.882;2022-08-01T12:06:29;621.57;;;572.37;;
18210;SDS011;9231;48.852;9.882;2022-08-01T12:08:55;632.60;;;583.13;;
18210;SDS011;9231;48.852;9.882;2022-08-01T12:11:40;641.80;;;592.00;;
18210;SDS011;9231;48.852;9.882;2022-08-01T12:14:08;654.73;;;604.70;;
18210;SDS011;9231;48.852;9.882;2022-08-01T12:16:36;653.23;;;602.83;;
18210;SDS011;9231;48.852;9.882;2022-08-01T12:19:02;666.77;;;616.03;;
18210;SDS011;9231;48.852;9.882;2022-08-01T12:21:30;674.73;;;624.13;;
18210;SDS011;9231;48.852;9.882;2022-08-01T12:24:00;690.63;;;639.77;;
18210;SDS011;9231;48.852;9.882;2022-08-01T12:26:38;729.40;;;677.50;;
18210;SDS011;9231;48.852;9.882;2022-08-01T12:29:04;687.83;;;636.90;;
18210;SDS011;9231;48.852;9.882;2022-08-01T12:31:33;638.33;;;588.90;;
18210;SDS011;9231;48.852;9.882;2022-08-01T12:36:41;650.30;;;600.23;;
18210;SDS011;9231;48.852;9.882;2022-08-01T12:39:07;633.40;;;584.30;;
18210;SDS011;9231;48.852;9.882;2022-08-01T12:41:34;644.90;;;595.03;;
18210;SDS011;9231;48.852;9.882;2022-08-01T12:44:01;628.60;;;579.27;;
18210;SDS011;9231;48.852;9.882;2022-08-01T12:46:28;604.47;;;555.80;;
18210;SDS011;9231;48.852;9.882;2022-08-01T12:48:56;581.47;;;533.43;;
18210;SDS011;9231;48.852;9.882;2022-08-01T12:51:22;568.90;;;521.03;;
18210;SDS011;9231;48.852;9.882;2022-08-01T12:53:49;587.37;;;537.70;;
18210;SDS011;9231;48.852;9.882;2022-08-01T12:56:16;639.93;;;590.37;;
18210;SDS011;9231;48.852;9.882;2022-08-01T12:58:42;650.30;;;599.73;;
18210;SDS011;9231;48.852;9.882;2022-08-01T13:01:09;605.30;;;556.20;;
18210;SDS011;9231;48.852;9.882;2022-08-01T13:03:36;590.30;;;541.73;;
18210;SDS011;9231;48.852;9.882;2022-08-01T13:06:08;678.37;;;627.80;;
18210;SDS011;9231;48.852;9.882;2022-08-01T13:08:35;681.77;;;631.07;;
18210;SDS011;9231;48.852;9.882;2022-08-01T13:11:04;754.63;;;701.57;;
18210;SDS011;9231;48.852;9.882;2022-08-01T13:13:37;673.60;;;623.80;;
18210;SDS011;9231;48.852;9.882;2022-08-01T13:16:04;724.90;;;673.33;;
18210;SDS011;9231;48.852;9.882;2022-08-01T13:18:31;749.53;;;697.23;;
18210;SDS011;9231;48.852;9.882;2022-08-01T13:21:09;841.80;;;785.73;;
18210;SDS011;9231;48.852;9.882;2022-08-01T13:23:36;783.20;;;729.63;;
18210;SDS011;9231;48.852;9.882;2022-08-01T13:26:03;756.77;;;704.03;;
18210;SDS011;9231;48.852;9.882;2022-08-01T13:28:30;721.00;;;669.47;;
18210;SDS011;9231;48.852;9.882;2022-08-01T13:30:57;724.30;;;671.70;;
18210;SDS011;9231;48.852;9.882;2022-08-01T13:33:24;709.50;;;657.80;;
18210;SDS011;9231;48.852;9.882;2022-08-01T13:35:51;683.67;;;632.77;;
18210;SDS011;9231;48.852;9.882;2022-08-01T13:38:19;695.20;;;644.30;;
18210;SDS011;9231;48.852;9.882;2022-08-01T13:41:06;699.73;;;647.83;;
18210;SDS011;9231;48.852;9.882;2022-08-01T13:43:33;720.27;;;668.43;;
18210;SDS011;9231;48.852;9.882;2022-08-01T13:45:59;730.30;;;678.23;;
18210;SDS011;9231;48.852;9.882;2022-08-01T13:48:27;716.17;;;664.37;;
18210;SDS011;9231;48.852;9.882;2022-08-01T13:50:54;717.00;;;664.70;;
18210;SDS011;9231;48.852;9.882;2022-08-01T13:53:22;732.27;;;680.37;;
18210;SDS011;9231;48.852;9.882;2022-08-01T13:55:48;752.50;;;699.97;;
18210;SDS011;9231;48.852;9.882;2022-08-01T13:58:14;739.53;;;687.33;;
18210;SDS011;9231;48.852;9.882;2022-08-01T14:00:41;733.47;;;681.10;;
18210;SDS011;9231;48.852;9.882;2022-08-01T14:03:08;741.17;;;688.73;;
18210;SDS011;9231;48.852;9.882;2022-08-01T14:05:35;731.03;;;677.87;;
18210;SDS011;9231;48.852;9.882;2022-08-01T14:08:02;704.63;;;653.27;;
18210;SDS011;9231;48.852;9.882;2022-08-01T14:10:30;704.30;;;652.83;;
18210;SDS011;9231;48.852;9.882;2022-08-01T14:12:56;718.77;;;666.93;;
18210;SDS011;9231;48.852;9.882;2022-08-01T14:15:23;700.03;;;648.70;;
18210;SDS011;9231;48.852;9.882;2022-08-01T14:17:50;708.87;;;657.27;;
18210;SDS011;9231;48.852;9.882;2022-08-01T14:20:17;722.63;;;670.40;;
18210;SDS011;9231;48.852;9.882;2022-08-01T14:22:44;724.20;;;671.97;;
18210;SDS011;9231;48.852;9.882;2022-08-01T14:25:11;759.27;;;706.37;;
18210;SDS011;9231;48.852;9.882;2022-08-01T14:27:39;759.57;;;705.70;;
18210;SDS011;9231;48.852;9.882;2022-08-01T14:30:06;765.90;;;712.40;;
18210;SDS011;9231;48.852;9.882;2022-08-01T14:32:33;744.30;;;692.40;;
18210;SDS011;9231;48.852;9.882;2022-08-01T14:35:00;750.20;;;696.63;;
18210;SDS011;9231;48.852;9.882;2022-08-01T14:37:27;696.57;;;645.47;;
18210;SDS011;9231;48.852;9.882;2022-08-01T14:39:54;711.33;;;659.33;;
18210;SDS011;9231;48.852;9.882;2022-08-01T14:42:20;704.97;;;653.50;;
18210;SDS011;9231;48.852;9.882;2022-08-01T14:44:48;691.17;;;640.77;;
18210;SDS011;9231;48.852;9.882;2022-08-01T14:47:14;696.57;;;645.27;;
18210;SDS011;9231;48.852;9.882;2022-08-01T14:49:41;701.07;;;649.67;;
18210;SDS011;9231;48.852;9.882;2022-08-01T14:52:07;697.53;;;646.43;;
18210;SDS011;9231;48.852;9.882;2022-08-01T14:54:34;713.13;;;661.40;;
18210;SDS011;9231;48.852;9.882;2022-08-01T14:57:00;707.90;;;656.40;;
18210;SDS011;9231;48.852;9.882;2022-08-01T14:59:27;729.80;;;677.73;;
18210;SDS011;9231;48.852;9.882;2022-08-01T15:01:54;709.27;;;658.17;;
18210;SDS011;9231;48.852;9.882;2022-08-01T15:04:21;751.67;;;698.77;;
18210;SDS011;9231;48.852;9.882;2022-08-01T15:06:47;761.60;;;708.77;;